sensor_id;sensor_type;location;lat;lon;timestamp;P1;durP1;ratioP1;P2;durP2;ratioP2
78646;SDS011;67961;43.460;3.762;2023-07-02T00:02:24;15.13;;;11.15;;
78646;SDS011;67961;43.460;3.762;2023-07-02T00:04:50;16.15;;;10.82;;
78646;SDS011;67961;43.460;3.762;2023-07-02T00:07:16;15.75;;;11.00;;
78646;SDS011;67961;43.460;3.762;2023-07-02T00:09:42;18.05;;;12.45;;
78646;SDS011;67961;43.460;3.762;2023-07-02T00:12:08;14.07;;;10.88;;
78646;SDS011;67961;43.460;3.762;2023-07-02T00:14:34;16.85;;;11.95;;
78646;SDS011;67961;43.460;3.762;2023-07-02T00:17:00;14.02;;;11.48;;
78646;SDS011;67961;43.460;3.762;2023-07-02T00:19:27;17.05;;;12.57;;
78646;SDS011;67961;43.460;3.762;2023-07-02T00:21:53;14.60;;;11.32;;
78646;SDS011;67961;43.460;3.762;2023-07-02T00:24:21;13.45;;;11.20;;
78646;SDS011;67961;43.460;3.762;2023-07-02T00:26:47;15.43;;;12.18;;
78646;SDS011;67961;43.460;3.762;2023-07-02T00:29:13;14.05;;;11.63;;
78646;SDS011;67961;43.460;3.762;2023-07-02T00:31:39;16.80;;;11.90;;
78646;SDS011;67961;43.460;3.762;2023-07-02T00:34:06;17.15;;;12.65;;
78646;SDS011;67961;43.460;3.762;2023-07-02T00:36:32;16.10;;;12.82;;
78646;SDS011;67961;43.460;3.762;2023-07-02T00:38:58;16.80;;;12.63;;
78646;SDS011;67961;43.460;3.762;2023-07-02T00:41:24;16.33;;;12.05;;
78646;SDS011;67961;43.460;3.762;2023-07-02T00:43:50;15.32;;;12.50;;
78646;SDS011;67961;43.460;3.762;2023-07-02T00:46:19;18.00;;;12.57;;
78646;SDS011;67961;43.460;3.762;2023-07-02T00:48:50;17.50;;;13.27;;
78646;SDS011;67961;43.460;3.762;2023-07-02T00:51:17;16.27;;;12.98;;
78646;SDS011;67961;43.460;3.762;2023-07-02T00:53:44;15.13;;;12.38;;
78646;SDS011;67961;43.460;3.762;2023-07-02T00:56:11;22.20;;;13.70;;
78646;SDS011;67961;43.460;3.762;2023-07-02T00:58:38;17.02;;;13.18;;
78646;SDS011;67961;43.460;3.762;2023-07-02T01:01:04;17.90;;;13.90;;
78646;SDS011;67961;43.460;3.762;2023-07-02T01:03:30;18.98;;;14.13;;
78646;SDS011;67961;43.460;3.762;2023-07-02T01:05:58;17.60;;;13.75;;
78646;SDS011;67961;43.460;3.762;2023-07-02T01:08:24;16.60;;;13.30;;
78646;SDS011;67961;43.460;3.762;2023-07-02T01:10:50;18.15;;;14.35;;
78646;SDS011;67961;43.460;3.762;2023-07-02T01:13:17;19.70;;;15.38;;
78646;SDS011;67961;43.460;3.762;2023-07-02T01:15:44;18.17;;;14.15;;
78646;SDS011;67961;43.460;3.762;2023-07-02T01:18:11;19.75;;;15.27;;
78646;SDS011;67961;43.460;3.762;2023-07-02T01:20:37;23.33;;;15.27;;
78646;SDS011;67961;43.460;3.762;2023-07-02T01:23:04;21.30;;;17.08;;
78646;SDS011;67961;43.460;3.762;2023-07-02T01:25:30;24.05;;;16.23;;
78646;SDS011;67961;43.460;3.762;2023-07-02T01:27:56;21.50;;;15.85;;
78646;SDS011;67961;43.460;3.762;2023-07-02T01:30:23;21.15;;;16.63;;
78646;SDS011;67961;43.460;3.762;2023-07-02T01:32:50;25.00;;;16.60;;
78646;SDS011;67961;43.460;3.762;2023-07-02T01:35:16;20.27;;;16.85;;
78646;SDS011;67961;43.460;3.762;2023-07-02T01:37:42;23.20;;;17.13;;
78646;SDS011;67961;43.460;3.762;2023-07-02T01:40:08;22.67;;;17.10;;
78646;SDS011;67961;43.460;3.762;2023-07-02T01:42:34;22.00;;;16.98;;
78646;SDS011;67961;43.460;3.762;2023-07-02T01:45:00;22.65;;;17.52;;
78646;SDS011;67961;43.460;3.762;2023-07-02T01:47:26;22.95;;;16.70;;
78646;SDS011;67961;43.460;3.762;2023-07-02T01:49:52;25.45;;;17.15;;
78646;SDS011;67961;43.460;3.762;2023-07-02T01:52:18;24.65;;;17.88;;
78646;SDS011;67961;43.460;3.762;2023-07-02T01:54:45;24.58;;;18.40;;
78646;SDS011;67961;43.460;3.762;2023-07-02T01:57:11;23.20;;;17.38;;
78646;SDS011;67961;43.460;3.762;2023-07-02T01:59:37;30.77;;;18.50;;
78646;SDS011;67961;43.460;3.762;2023-07-02T02:02:03;27.67;;;18.50;;
78646;SDS011;67961;43.460;3.762;2023-07-02T02:04:29;25.15;;;19.60;;
78646;SDS011;67961;43.460;3.762;2023-07-02T02:06:55;21.85;;;18.40;;
78646;SDS011;67961;43.460;3.762;2023-07-02T02:09:21;26.23;;;18.63;;
78646;SDS011;67961;43.460;3.762;2023-07-02T02:11:48;28.42;;;20.60;;
78646;SDS011;67961;43.460;3.762;2023-07-02T02:14:15;27.92;;;20.30;;
78646;SDS011;67961;43.460;3.762;2023-07-02T02:16:42;28.52;;;20.20;;
78646;SDS011;67961;43.460;3.762;2023-07-02T02:19:10;27.40;;;20.60;;
78646;SDS011;67961;43.460;3.762;2023-07-02T02:21:37;26.25;;;20.35;;
78646;SDS011;67961;43.460;3.762;2023-07-02T02:24:05;31.55;;;20.75;;
78646;SDS011;67961;43.460;3.762;2023-07-02T02:26:31;28.58;;;20.92;;
78646;SDS011;67961;43.460;3.762;2023-07-02T02:28:57;29.00;;;20.38;;
78646;SDS011;67961;43.460;3.762;2023-07-02T02:31:23;26.75;;;20.25;;
78646;SDS011;67961;43.460;3.762;2023-07-02T02:33:49;26.40;;;19.85;;
78646;SDS011;67961;43.460;3.762;2023-07-02T02:36:15;25.35;;;20.25;;
78646;SDS011;67961;43.460;3.762;2023-07-02T02:38:42;27.42;;;19.42;;
78646;SDS011;67961;43.460;3.762;2023-07-02T02:41:08;28.80;;;20.30;;
78646;SDS011;67961;43.460;3.762;2023-07-02T02:43:34;24.50;;;19.23;;
78646;SDS011;67961;43.460;3.762;2023-07-02T02:46:00;28.55;;;19.60;;
78646;SDS011;67961;43.460;3.762;2023-07-02T02:48:26;24.58;;;18.77;;
78646;SDS011;67961;43.460;3.762;2023-07-02T02:50:52;27.23;;;20.77;;
78646;SDS011;67961;43.460;3.762;2023-07-02T02:53:18;29.95;;;20.00;;
78646;SDS011;67961;43.460;3.762;2023-07-02T02:55:44;25.33;;;18.88;;
78646;SDS011;67961;43.460;3.762;2023-07-02T02:58:10;29.35;;;20.33;;
78646;SDS011;67961;43.460;3.762;2023-07-02T03:00:36;33.20;;;20.23;;
78646;SDS011;67961;43.460;3.762;2023-07-02T03:03:07;32.03;;;19.13;;
78646;SDS011;67961;43.460;3.762;2023-07-02T03:05:33;25.00;;;19.23;;
78646;SDS011;67961;43.460;3.762;2023-07-02T03:07:59;26.15;;;19.05;;
78646;SDS011;67961;43.460;3.762;2023-07-02T03:10:25;25.77;;;19.23;;
78646;SDS011;67961;43.460;3.762;2023-07-02T03:12:51;27.63;;;18.25;;
78646;SDS011;67961;43.460;3.762;2023-07-02T03:15:17;25.83;;;18.52;;
78646;SDS011;67961;43.460;3.762;2023-07-02T03:17:43;28.63;;;19.90;;
78646;SDS011;67961;43.460;3.762;2023-07-02T03:20:09;26.95;;;19.75;;
78646;SDS011;67961;43.460;3.762;2023-07-02T03:22:35;28.90;;;20.00;;
78646;SDS011;67961;43.460;3.762;2023-07-02T03:25:01;27.45;;;19.73;;
78646;SDS011;67961;43.460;3.762;2023-07-02T03:27:27;29.17;;;19.48;;
78646;SDS011;67961;43.460;3.762;2023-07-02T03:29:53;27.58;;;19.48;;
78646;SDS011;67961;43.460;3.762;2023-07-02T03:32:20;25.85;;;18.67;;
78646;SDS011;67961;43.460;3.762;2023-07-02T03:34:46;25.60;;;18.48;;
78646;SDS011;67961;43.460;3.762;2023-07-02T03:37:12;27.45;;;19.55;;
78646;SDS011;67961;43.460;3.762;2023-07-02T03:39:38;24.48;;;18.67;;
78646;SDS011;67961;43.460;3.762;2023-07-02T03:42:05;26.02;;;18.38;;
78646;SDS011;67961;43.460;3.762;2023-07-02T03:44:31;23.83;;;18.27;;
78646;SDS011;67961;43.460;3.762;2023-07-02T03:46:57;26.13;;;19.13;;
78646;SDS011;67961;43.460;3.762;2023-07-02T03:49:23;30.08;;;19.20;;
78646;SDS011;67961;43.460;3.762;2023-07-02T03:51:49;28.23;;;19.85;;
78646;SDS011;67961;43.460;3.762;2023-07-02T03:54:15;27.25;;;19.38;;
78646;SDS011;67961;43.460;3.762;2023-07-02T03:56:42;28.02;;;18.95;;
78646;SDS011;67961;43.460;3.762;2023-07-02T03:59:08;32.35;;;20.42;;
78646;SDS011;67961;43.460;3.762;2023-07-02T04:01:34;26.92;;;18.05;;
78646;SDS011;67961;43.460;3.762;2023-07-02T04:04:01;22.63;;;16.40;;
78646;SDS011;67961;43.460;3.762;2023-07-02T04:06:27;26.65;;;20.00;;
78646;SDS011;67961;43.460;3.762;2023-07-02T04:08:53;27.23;;;20.10;;
78646;SDS011;67961;43.460;3.762;2023-07-02T04:11:19;28.63;;;19.00;;
78646;SDS011;67961;43.460;3.762;2023-07-02T04:13:45;25.27;;;17.90;;
78646;SDS011;67961;43.460;3.762;2023-07-02T04:16:11;25.00;;;18.05;;
78646;SDS011;67961;43.460;3.762;2023-07-02T04:18:37;30.98;;;18.85;;
78646;SDS011;67961;43.460;3.762;2023-07-02T04:21:03;25.55;;;17.80;;
78646;SDS011;67961;43.460;3.762;2023-07-02T04:23:29;24.08;;;17.42;;
78646;SDS011;67961;43.460;3.762;2023-07-02T04:25:55;26.30;;;18.02;;
78646;SDS011;67961;43.460;3.762;2023-07-02T04:28:21;24.55;;;16.38;;
78646;SDS011;67961;43.460;3.762;2023-07-02T04:30:47;25.13;;;17.48;;
78646;SDS011;67961;43.460;3.762;2023-07-02T04:33:15;21.48;;;14.85;;
78646;SDS011;67961;43.460;3.762;2023-07-02T04:35:42;24.88;;;16.08;;
78646;SDS011;67961;43.460;3.762;2023-07-02T04:38:08;22.75;;;15.30;;
78646;SDS011;67961;43.460;3.762;2023-07-02T04:40:34;25.90;;;16.10;;
78646;SDS011;67961;43.460;3.762;2023-07-02T04:43:00;26.00;;;17.38;;
78646;SDS011;67961;43.460;3.762;2023-07-02T04:45:29;22.38;;;16.30;;
78646;SDS011;67961;43.460;3.762;2023-07-02T04:47:57;27.27;;;17.52;;
78646;SDS011;67961;43.460;3.762;2023-07-02T04:50:25;26.83;;;16.05;;
78646;SDS011;67961;43.460;3.762;2023-07-02T04:52:51;21.20;;;14.80;;
78646;SDS011;67961;43.460;3.762;2023-07-02T04:55:17;21.58;;;13.05;;
78646;SDS011;67961;43.460;3.762;2023-07-02T04:57:43;23.67;;;15.43;;
78646;SDS011;67961;43.460;3.762;2023-07-02T05:00:10;19.77;;;14.63;;
78646;SDS011;67961;43.460;3.762;2023-07-02T05:02:38;27.02;;;14.43;;
78646;SDS011;67961;43.460;3.762;2023-07-02T05:05:07;21.17;;;13.55;;
78646;SDS011;67961;43.460;3.762;2023-07-02T05:07:33;22.73;;;15.48;;
78646;SDS011;67961;43.460;3.762;2023-07-02T05:09:59;24.70;;;14.15;;
78646;SDS011;67961;43.460;3.762;2023-07-02T05:12:25;21.45;;;14.27;;
78646;SDS011;67961;43.460;3.762;2023-07-02T05:14:51;18.52;;;13.50;;
78646;SDS011;67961;43.460;3.762;2023-07-02T05:17:17;21.50;;;14.98;;
78646;SDS011;67961;43.460;3.762;2023-07-02T05:19:43;22.58;;;13.98;;
78646;SDS011;67961;43.460;3.762;2023-07-02T05:22:09;21.42;;;12.77;;
78646;SDS011;67961;43.460;3.762;2023-07-02T05:24:38;19.02;;;12.57;;
78646;SDS011;67961;43.460;3.762;2023-07-02T05:27:05;18.48;;;12.90;;
78646;SDS011;67961;43.460;3.762;2023-07-02T05:29:32;20.00;;;12.13;;
78646;SDS011;67961;43.460;3.762;2023-07-02T05:31:58;17.48;;;12.30;;
78646;SDS011;67961;43.460;3.762;2023-07-02T05:34:24;14.65;;;10.43;;
78646;SDS011;67961;43.460;3.762;2023-07-02T05:36:50;17.08;;;11.60;;
78646;SDS011;67961;43.460;3.762;2023-07-02T05:39:16;14.57;;;10.82;;
78646;SDS011;67961;43.460;3.762;2023-07-02T05:41:42;14.70;;;10.20;;
78646;SDS011;67961;43.460;3.762;2023-07-02T05:44:08;17.88;;;10.30;;
78646;SDS011;67961;43.460;3.762;2023-07-02T05:46:34;14.48;;;9.27;;
78646;SDS011;67961;43.460;3.762;2023-07-02T05:49:00;14.15;;;8.93;;
78646;SDS011;67961;43.460;3.762;2023-07-02T05:51:26;13.00;;;8.10;;
78646;SDS011;67961;43.460;3.762;2023-07-02T05:53:52;11.73;;;8.93;;
78646;SDS011;67961;43.460;3.762;2023-07-02T05:56:18;10.38;;;7.80;;
78646;SDS011;67961;43.460;3.762;2023-07-02T05:58:48;11.32;;;8.00;;
78646;SDS011;67961;43.460;3.762;2023-07-02T06:01:15;10.18;;;7.05;;
78646;SDS011;67961;43.460;3.762;2023-07-02T06:03:41;11.30;;;7.05;;
78646;SDS011;67961;43.460;3.762;2023-07-02T06:06:10;8.98;;;6.07;;
78646;SDS011;67961;43.460;3.762;2023-07-02T06:08:38;10.75;;;6.20;;
78646;SDS011;67961;43.460;3.762;2023-07-02T06:11:04;8.73;;;6.82;;
78646;SDS011;67961;43.460;3.762;2023-07-02T06:13:31;7.88;;;5.95;;
78646;SDS011;67961;43.460;3.762;2023-07-02T06:15:57;8.27;;;5.32;;
78646;SDS011;67961;43.460;3.762;2023-07-02T06:18:23;8.38;;;5.13;;
78646;SDS011;67961;43.460;3.762;2023-07-02T06:20:50;6.47;;;4.85;;
78646;SDS011;67961;43.460;3.762;2023-07-02T06:23:16;7.53;;;4.55;;
78646;SDS011;67961;43.460;3.762;2023-07-02T06:25:42;7.07;;;4.93;;
78646;SDS011;67961;43.460;3.762;2023-07-02T06:28:09;6.85;;;4.93;;
78646;SDS011;67961;43.460;3.762;2023-07-02T06:30:35;6.30;;;4.72;;
78646;SDS011;67961;43.460;3.762;2023-07-02T06:33:01;7.88;;;4.63;;
78646;SDS011;67961;43.460;3.762;2023-07-02T06:35:27;6.00;;;4.38;;
78646;SDS011;67961;43.460;3.762;2023-07-02T06:37:53;10.07;;;5.78;;
78646;SDS011;67961;43.460;3.762;2023-07-02T06:40:20;5.93;;;4.10;;
78646;SDS011;67961;43.460;3.762;2023-07-02T06:42:47;5.40;;;4.13;;
78646;SDS011;67961;43.460;3.762;2023-07-02T06:45:13;5.25;;;3.95;;
78646;SDS011;67961;43.460;3.762;2023-07-02T06:47:39;5.35;;;3.78;;
78646;SDS011;67961;43.460;3.762;2023-07-02T06:50:05;5.13;;;3.67;;
78646;SDS011;67961;43.460;3.762;2023-07-02T06:52:32;4.88;;;3.70;;
78646;SDS011;67961;43.460;3.762;2023-07-02T06:54:58;4.88;;;3.28;;
78646;SDS011;67961;43.460;3.762;2023-07-02T06:57:24;5.10;;;3.50;;
78646;SDS011;67961;43.460;3.762;2023-07-02T06:59:50;5.22;;;3.50;;
78646;SDS011;67961;43.460;3.762;2023-07-02T07:02:16;5.97;;;3.40;;
78646;SDS011;67961;43.460;3.762;2023-07-02T07:04:42;3.60;;;2.90;;
78646;SDS011;67961;43.460;3.762;2023-07-02T07:07:08;4.53;;;3.15;;
78646;SDS011;67961;43.460;3.762;2023-07-02T07:09:34;3.67;;;3.13;;
78646;SDS011;67961;43.460;3.762;2023-07-02T07:12:00;5.00;;;3.65;;
78646;SDS011;67961;43.460;3.762;2023-07-02T07:14:26;3.50;;;2.97;;
78646;SDS011;67961;43.460;3.762;2023-07-02T07:16:52;3.42;;;3.00;;
78646;SDS011;67961;43.460;3.762;2023-07-02T07:19:18;4.38;;;2.95;;
78646;SDS011;67961;43.460;3.762;2023-07-02T07:21:44;4.05;;;2.83;;
78646;SDS011;67961;43.460;3.762;2023-07-02T07:24:10;3.47;;;2.90;;
78646;SDS011;67961;43.460;3.762;2023-07-02T07:26:36;3.90;;;2.85;;
78646;SDS011;67961;43.460;3.762;2023-07-02T07:29:04;2.50;;;2.30;;
78646;SDS011;67961;43.460;3.762;2023-07-02T07:31:30;3.38;;;2.45;;
78646;SDS011;67961;43.460;3.762;2023-07-02T07:33:56;2.80;;;2.30;;
78646;SDS011;67961;43.460;3.762;2023-07-02T07:36:22;2.65;;;2.08;;
78646;SDS011;67961;43.460;3.762;2023-07-02T07:38:48;2.33;;;1.90;;
78646;SDS011;67961;43.460;3.762;2023-07-02T07:41:14;1.88;;;1.75;;
78646;SDS011;67961;43.460;3.762;2023-07-02T07:43:40;1.77;;;1.67;;
78646;SDS011;67961;43.460;3.762;2023-07-02T07:46:06;3.03;;;2.47;;
78646;SDS011;67961;43.460;3.762;2023-07-02T07:48:32;2.00;;;1.80;;
78646;SDS011;67961;43.460;3.762;2023-07-02T07:50:58;1.60;;;1.50;;
78646;SDS011;67961;43.460;3.762;2023-07-02T07:53:25;1.65;;;1.52;;
78646;SDS011;67961;43.460;3.762;2023-07-02T07:55:51;1.65;;;1.55;;
78646;SDS011;67961;43.460;3.762;2023-07-02T07:58:20;4.65;;;1.63;;
78646;SDS011;67961;43.460;3.762;2023-07-02T08:00:46;3.22;;;1.80;;
78646;SDS011;67961;43.460;3.762;2023-07-02T08:03:12;1.50;;;1.30;;
78646;SDS011;67961;43.460;3.762;2023-07-02T08:05:38;1.40;;;1.30;;
78646;SDS011;67961;43.460;3.762;2023-07-02T08:08:04;1.30;;;1.20;;
78646;SDS011;67961;43.460;3.762;2023-07-02T08:10:30;1.27;;;1.20;;
78646;SDS011;67961;43.460;3.762;2023-07-02T08:12:56;1.30;;;1.20;;
78646;SDS011;67961;43.460;3.762;2023-07-02T08:15:22;1.33;;;1.10;;
78646;SDS011;67961;43.460;3.762;2023-07-02T08:17:48;1.25;;;1.15;;
78646;SDS011;67961;43.460;3.762;2023-07-02T08:20:16;1.63;;;1.33;;
78646;SDS011;67961;43.460;3.762;2023-07-02T08:22:42;1.17;;;1.08;;
78646;SDS011;67961;43.460;3.762;2023-07-02T08:25:08;0.90;;;0.90;;
78646;SDS011;67961;43.460;3.762;2023-07-02T08:27:34;1.02;;;1.00;;
78646;SDS011;67961;43.460;3.762;2023-07-02T08:30:00;3.88;;;0.80;;
78646;SDS011;67961;43.460;3.762;2023-07-02T08:32:26;0.95;;;0.80;;
78646;SDS011;67961;43.460;3.762;2023-07-02T08:34:52;0.88;;;0.80;;
78646;SDS011;67961;43.460;3.762;2023-07-02T08:37:20;1.10;;;0.70;;
78646;SDS011;67961;43.460;3.762;2023-07-02T08:39:49;1.10;;;1.00;;
78646;SDS011;67961;43.460;3.762;2023-07-02T08:42:15;2.70;;;0.73;;
78646;SDS011;67961;43.460;3.762;2023-07-02T08:44:42;1.00;;;0.68;;
78646;SDS011;67961;43.460;3.762;2023-07-02T08:47:11;0.60;;;0.60;;
78646;SDS011;67961;43.460;3.762;2023-07-02T08:49:37;0.80;;;0.77;;
78646;SDS011;67961;43.460;3.762;2023-07-02T08:52:03;0.68;;;0.68;;
78646;SDS011;67961;43.460;3.762;2023-07-02T08:54:30;0.85;;;0.60;;
78646;SDS011;67961;43.460;3.762;2023-07-02T08:56:56;0.63;;;0.63;;
78646;SDS011;67961;43.460;3.762;2023-07-02T08:59:22;0.90;;;0.85;;
78646;SDS011;67961;43.460;3.762;2023-07-02T09:01:48;0.52;;;0.52;;
78646;SDS011;67961;43.460;3.762;2023-07-02T09:04:18;0.85;;;0.80;;
78646;SDS011;67961;43.460;3.762;2023-07-02T09:06:45;0.45;;;0.45;;
78646;SDS011;67961;43.460;3.762;2023-07-02T09:09:11;1.50;;;0.80;;
78646;SDS011;67961;43.460;3.762;2023-07-02T09:11:46;0.70;;;0.70;;
78646;SDS011;67961;43.460;3.762;2023-07-02T09:14:22;0.60;;;0.60;;
78646;SDS011;67961;43.460;3.762;2023-07-02T09:16:49;0.60;;;0.60;;
78646;SDS011;67961;43.460;3.762;2023-07-02T09:19:18;0.98;;;0.63;;
78646;SDS011;67961;43.460;3.762;2023-07-02T09:24:17;0.50;;;0.50;;
78646;SDS011;67961;43.460;3.762;2023-07-02T09:26:48;1.13;;;0.60;;
78646;SDS011;67961;43.460;3.762;2023-07-02T09:29:20;1.00;;;0.70;;
78646;SDS011;67961;43.460;3.762;2023-07-02T09:31:48;0.75;;;0.60;;
78646;SDS011;67961;43.460;3.762;2023-07-02T09:34:17;0.90;;;0.50;;
78646;SDS011;67961;43.460;3.762;2023-07-02T09:36:43;0.77;;;0.77;;
78646;SDS011;67961;43.460;3.762;2023-07-02T09:39:13;1.20;;;0.93;;
78646;SDS011;67961;43.460;3.762;2023-07-02T09:41:42;0.70;;;0.70;;
78646;SDS011;67961;43.460;3.762;2023-07-02T09:44:09;0.90;;;0.80;;
78646;SDS011;67961;43.460;3.762;2023-07-02T09:46:37;0.70;;;0.70;;
78646;SDS011;67961;43.460;3.762;2023-07-02T09:49:03;0.85;;;0.85;;
78646;SDS011;67961;43.460;3.762;2023-07-02T09:51:30;0.70;;;0.70;;
78646;SDS011;67961;43.460;3.762;2023-07-02T09:53:57;0.55;;;0.55;;
78646;SDS011;67961;43.460;3.762;2023-07-02T09:56:23;1.05;;;0.75;;
78646;SDS011;67961;43.460;3.762;2023-07-02T09:58:49;1.10;;;1.10;;
78646;SDS011;67961;43.460;3.762;2023-07-02T10:01:16;1.00;;;0.70;;
78646;SDS011;67961;43.460;3.762;2023-07-02T10:03:42;0.75;;;0.70;;
78646;SDS011;67961;43.460;3.762;2023-07-02T10:06:08;1.48;;;0.82;;
78646;SDS011;67961;43.460;3.762;2023-07-02T10:08:34;2.30;;;1.00;;
78646;SDS011;67961;43.460;3.762;2023-07-02T10:11:07;1.02;;;0.90;;
78646;SDS011;67961;43.460;3.762;2023-07-02T10:13:34;0.85;;;0.85;;
78646;SDS011;67961;43.460;3.762;2023-07-02T10:16:00;2.75;;;0.95;;
78646;SDS011;67961;43.460;3.762;2023-07-02T10:18:26;1.08;;;0.73;;
78646;SDS011;67961;43.460;3.762;2023-07-02T10:20:52;1.50;;;0.98;;
78646;SDS011;67961;43.460;3.762;2023-07-02T10:23:18;1.00;;;0.90;;
78646;SDS011;67961;43.460;3.762;2023-07-02T10:25:47;1.95;;;0.90;;
78646;SDS011;67961;43.460;3.762;2023-07-02T10:28:16;3.42;;;1.05;;
78646;SDS011;67961;43.460;3.762;2023-07-02T10:30:44;0.95;;;0.95;;
78646;SDS011;67961;43.460;3.762;2023-07-02T10:35:36;1.90;;;1.00;;
78646;SDS011;67961;43.460;3.762;2023-07-02T10:38:03;1.30;;;0.85;;
78646;SDS011;67961;43.460;3.762;2023-07-02T10:40:29;1.02;;;1.00;;
78646;SDS011;67961;43.460;3.762;2023-07-02T10:42:55;0.90;;;0.90;;
78646;SDS011;67961;43.460;3.762;2023-07-02T10:45:30;2.35;;;1.27;;
78646;SDS011;67961;43.460;3.762;2023-07-02T10:47:56;1.38;;;0.90;;
78646;SDS011;67961;43.460;3.762;2023-07-02T10:50:22;1.63;;;1.00;;
78646;SDS011;67961;43.460;3.762;2023-07-02T10:52:48;1.13;;;1.02;;
78646;SDS011;67961;43.460;3.762;2023-07-02T10:55:18;1.45;;;1.27;;
78646;SDS011;67961;43.460;3.762;2023-07-02T10:57:45;1.13;;;0.98;;
78646;SDS011;67961;43.460;3.762;2023-07-02T11:00:11;1.15;;;0.90;;
78646;SDS011;67961;43.460;3.762;2023-07-02T11:02:37;6.50;;;1.08;;
78646;SDS011;67961;43.460;3.762;2023-07-02T11:05:06;4.40;;;1.23;;
78646;SDS011;67961;43.460;3.762;2023-07-02T11:07:37;1.30;;;1.20;;
78646;SDS011;67961;43.460;3.762;2023-07-02T11:10:03;1.52;;;1.40;;
78646;SDS011;67961;43.460;3.762;2023-07-02T11:12:30;2.67;;;1.13;;
78646;SDS011;67961;43.460;3.762;2023-07-02T11:15:15;2.28;;;1.58;;
78646;SDS011;67961;43.460;3.762;2023-07-02T11:17:42;1.75;;;1.30;;
78646;SDS011;67961;43.460;3.762;2023-07-02T11:20:09;7.80;;;1.45;;
78646;SDS011;67961;43.460;3.762;2023-07-02T11:22:36;3.30;;;2.20;;
78646;SDS011;67961;43.460;3.762;2023-07-02T11:25:35;3.08;;;2.10;;
78646;SDS011;67961;43.460;3.762;2023-07-02T11:28:03;5.55;;;3.85;;
78646;SDS011;67961;43.460;3.762;2023-07-02T11:30:30;2.90;;;2.10;;
78646;SDS011;67961;43.460;3.762;2023-07-02T11:32:56;1.92;;;1.75;;
78646;SDS011;67961;43.460;3.762;2023-07-02T11:35:22;2.03;;;1.65;;
78646;SDS011;67961;43.460;3.762;2023-07-02T11:37:59;2.97;;;1.85;;
78646;SDS011;67961;43.460;3.762;2023-07-02T11:40:25;5.60;;;1.67;;
78646;SDS011;67961;43.460;3.762;2023-07-02T11:42:51;1.70;;;1.60;;
78646;SDS011;67961;43.460;3.762;2023-07-02T11:45:17;2.60;;;1.50;;
78646;SDS011;67961;43.460;3.762;2023-07-02T11:47:43;1.85;;;1.48;;
78646;SDS011;67961;43.460;3.762;2023-07-02T11:50:09;2.65;;;2.28;;
78646;SDS011;67961;43.460;3.762;2023-07-02T11:52:35;3.65;;;2.88;;
78646;SDS011;67961;43.460;3.762;2023-07-02T11:55:01;2.45;;;1.98;;
78646;SDS011;67961;43.460;3.762;2023-07-02T11:57:28;4.25;;;3.10;;
78646;SDS011;67961;43.460;3.762;2023-07-02T11:59:54;3.85;;;1.83;;
78646;SDS011;67961;43.460;3.762;2023-07-02T12:02:23;2.55;;;1.98;;
78646;SDS011;67961;43.460;3.762;2023-07-02T12:04:49;3.70;;;1.88;;
78646;SDS011;67961;43.460;3.762;2023-07-02T12:07:15;3.70;;;1.98;;
78646;SDS011;67961;43.460;3.762;2023-07-02T12:09:41;2.55;;;1.40;;
78646;SDS011;67961;43.460;3.762;2023-07-02T12:12:07;1.90;;;1.50;;
78646;SDS011;67961;43.460;3.762;2023-07-02T12:14:33;1.77;;;1.67;;
78646;SDS011;67961;43.460;3.762;2023-07-02T12:16:59;1.65;;;1.55;;
78646;SDS011;67961;43.460;3.762;2023-07-02T12:19:25;2.90;;;1.80;;
78646;SDS011;67961;43.460;3.762;2023-07-02T12:21:51;3.28;;;1.50;;
78646;SDS011;67961;43.460;3.762;2023-07-02T12:24:17;2.15;;;1.60;;
78646;SDS011;67961;43.460;3.762;2023-07-02T12:26:43;2.38;;;1.70;;
78646;SDS011;67961;43.460;3.762;2023-07-02T12:29:09;1.73;;;1.50;;
78646;SDS011;67961;43.460;3.762;2023-07-02T12:31:35;1.42;;;1.33;;
78646;SDS011;67961;43.460;3.762;2023-07-02T12:34:01;2.25;;;1.50;;
78646;SDS011;67961;43.460;3.762;2023-07-02T12:36:28;1.60;;;1.50;;
78646;SDS011;67961;43.460;3.762;2023-07-02T12:38:54;1.90;;;1.60;;
78646;SDS011;67961;43.460;3.762;2023-07-02T12:41:20;4.20;;;1.92;;
78646;SDS011;67961;43.460;3.762;2023-07-02T12:43:46;3.70;;;1.88;;
78646;SDS011;67961;43.460;3.762;2023-07-02T12:46:12;4.38;;;1.80;;
78646;SDS011;67961;43.460;3.762;2023-07-02T12:48:38;2.15;;;1.58;;
78646;SDS011;67961;43.460;3.762;2023-07-02T12:51:04;1.58;;;1.48;;
78646;SDS011;67961;43.460;3.762;2023-07-02T12:53:30;1.90;;;1.58;;
78646;SDS011;67961;43.460;3.762;2023-07-02T12:55:56;2.88;;;1.83;;
78646;SDS011;67961;43.460;3.762;2023-07-02T12:58:22;2.75;;;1.90;;
78646;SDS011;67961;43.460;3.762;2023-07-02T13:00:48;2.10;;;1.90;;
78646;SDS011;67961;43.460;3.762;2023-07-02T13:03:16;4.45;;;2.17;;
78646;SDS011;67961;43.460;3.762;2023-07-02T13:05:43;3.75;;;2.20;;
78646;SDS011;67961;43.460;3.762;2023-07-02T13:08:09;6.43;;;2.10;;
78646;SDS011;67961;43.460;3.762;2023-07-02T13:10:35;3.67;;;2.40;;
78646;SDS011;67961;43.460;3.762;2023-07-02T13:13:01;3.17;;;1.92;;
78646;SDS011;67961;43.460;3.762;2023-07-02T13:15:27;2.47;;;2.00;;
78646;SDS011;67961;43.460;3.762;2023-07-02T13:17:54;2.97;;;2.28;;
78646;SDS011;67961;43.460;3.762;2023-07-02T13:20:20;5.03;;;2.40;;
78646;SDS011;67961;43.460;3.762;2023-07-02T13:22:46;3.72;;;2.30;;
78646;SDS011;67961;43.460;3.762;2023-07-02T13:25:12;5.18;;;2.63;;
78646;SDS011;67961;43.460;3.762;2023-07-02T13:27:38;5.18;;;2.67;;
78646;SDS011;67961;43.460;3.762;2023-07-02T13:30:04;3.67;;;2.28;;
78646;SDS011;67961;43.460;3.762;2023-07-02T13:32:30;4.50;;;2.55;;
78646;SDS011;67961;43.460;3.762;2023-07-02T13:34:56;5.05;;;2.58;;
78646;SDS011;67961;43.460;3.762;2023-07-02T13:37:22;5.72;;;3.08;;
78646;SDS011;67961;43.460;3.762;2023-07-02T13:39:49;3.75;;;2.78;;
78646;SDS011;67961;43.460;3.762;2023-07-02T13:42:15;3.50;;;2.55;;
78646;SDS011;67961;43.460;3.762;2023-07-02T13:44:41;3.88;;;2.95;;
78646;SDS011;67961;43.460;3.762;2023-07-02T13:47:07;5.13;;;3.03;;
78646;SDS011;67961;43.460;3.762;2023-07-02T13:49:34;4.80;;;3.00;;
78646;SDS011;67961;43.460;3.762;2023-07-02T13:52:00;3.72;;;2.78;;
78646;SDS011;67961;43.460;3.762;2023-07-02T13:54:26;4.22;;;2.92;;
78646;SDS011;67961;43.460;3.762;2023-07-02T13:56:52;3.88;;;2.85;;
78646;SDS011;67961;43.460;3.762;2023-07-02T13:59:18;5.55;;;3.10;;
78646;SDS011;67961;43.460;3.762;2023-07-02T14:01:45;5.55;;;2.72;;
78646;SDS011;67961;43.460;3.762;2023-07-02T14:04:11;4.05;;;2.70;;
78646;SDS011;67961;43.460;3.762;2023-07-02T14:06:37;9.82;;;2.58;;
78646;SDS011;67961;43.460;3.762;2023-07-02T14:09:04;4.68;;;2.95;;
78646;SDS011;67961;43.460;3.762;2023-07-02T14:11:31;7.22;;;4.07;;
78646;SDS011;67961;43.460;3.762;2023-07-02T14:13:57;5.18;;;3.13;;
78646;SDS011;67961;43.460;3.762;2023-07-02T14:16:23;7.00;;;3.72;;
78646;SDS011;67961;43.460;3.762;2023-07-02T14:18:50;7.47;;;3.88;;
78646;SDS011;67961;43.460;3.762;2023-07-02T14:21:16;8.27;;;3.80;;
78646;SDS011;67961;43.460;3.762;2023-07-02T14:23:42;7.50;;;3.28;;
78646;SDS011;67961;43.460;3.762;2023-07-02T14:26:08;3.85;;;2.70;;
78646;SDS011;67961;43.460;3.762;2023-07-02T14:28:34;6.30;;;4.10;;
78646;SDS011;67961;43.460;3.762;2023-07-02T14:31:01;5.25;;;3.20;;
78646;SDS011;67961;43.460;3.762;2023-07-02T14:33:28;6.32;;;4.50;;
78646;SDS011;67961;43.460;3.762;2023-07-02T14:35:55;7.60;;;4.30;;
78646;SDS011;67961;43.460;3.762;2023-07-02T14:38:21;5.20;;;3.65;;